Time;durP1;ratioP1;P1;durP2;ratioP2;P2;SDS_P1;SDS_P2;PMS_P1;PMS_P2;Temp;Humidity;BMP_temperature;BMP_pressure;BME280_temperature;BME280_humidity;BME280_pressure;Samples;Min_cycle;Max_cycle;Signal;HPM_P1;HPM_P2
2022/10/31 00:02:05;;;;;;;;;;;;;;;9.61;96.39;99769.16;8272626;28;19929;-78
2022/10/31 00:06:07;;;;;;;;;;;;;;;9.62;96.96;99764.84;8283503;28;19949;-79
2022/10/31 00:10:08;;;;;;;;;;;;;;;9.61;96.54;99766.56;8277562;28;19940;-80
2022/10/31 00:14:09;;;;;;;;;;;;;;;9.63;96.91;99761.38;8296758;28;20375;-79
2022/10/31 00:18:11;;;;;;;;;;;;;;;9.66;96.56;99751.88;8279647;28;19937;-82
2022/10/31 00:22:12;;;;;;;;;;;;;;;9.61;95.89;99753.59;8290819;28;19930;-80
2022/10/31 00:26:13;;;;;;;;;;;;;;;9.55;96.40;99753.56;8298667;28;19930;-80
2022/10/31 00:30:15;;;;;;;;;;;;;;;9.50;97.39;99752.66;8296965;28;19941;-79
2022/10/31 00:34:16;;;;;;;;;;;;;;;9.54;97.09;99751.84;8711969;22;19938;-79
2022/10/31 00:38:18;;;;;;;;;;;;;;;9.58;97.50;99752.72;8248229;28;19992;-78
2022/10/31 00:42:19;;;;;;;;;;;;;;;9.60;97.58;99753.59;8260790;28;19934;-79
2022/10/31 00:46:20;;;;;;;;;;;;;;;9.63;97.54;99762.25;8252011;28;19940;-81
2022/10/31 00:50:21;;;;;;;;;;;;;;;9.58;97.15;99758.78;8263641;28;19980;-80
2022/10/31 00:54:23;;;;;;;;;;;;;;;9.57;96.69;99764.81;8261336;28;19933;-79
2022/10/31 00:58:24;;;;;;;;;;;;;;;9.55;97.00;99758.75;8260978;28;20306;-80
2022/10/31 01:02:26;;;;;;;;;;;;;;;9.57;97.19;99759.63;8261963;28;19926;-80
2022/10/31 01:06:27;;;;;;;;;;;;;;;9.56;96.77;99754.44;8252513;28;20052;-79
2022/10/31 01:10:29;;;;;;;;;;;;;;;9.53;96.46;99755.28;8270437;28;20294;-79
2022/10/31 01:14:30;;;;;;;;;;;;;;;9.55;97.06;99757.91;8259517;28;19980;-80
2022/10/31 01:18:32;;;;;;;;;;;;;;;9.55;97.22;99755.31;8253414;28;19930;-79
2022/10/31 01:22:33;;;;;;;;;;;;;;;9.53;97.27;99749.25;8266529;28;20757;-79
2022/10/31 01:26:35;;;;;;;;;;;;;;;9.51;96.84;99753.53;8268389;28;19938;-80
2022/10/31 01:30:36;;;;;;;;;;;;;;;9.54;97.21;99749.25;8270235;28;19933;-79
2022/10/31 01:34:37;;;;;;;;;;;;;;;9.53;96.88;99744.94;8244727;28;19956;-80
2022/10/31 01:38:39;;;;;;;;;;;;;;;9.48;96.85;99744.00;8262899;28;19925;-80
2022/10/31 01:42:40;;;;;;;;;;;;;;;9.44;97.33;99738.81;8243679;28;19930;-80
2022/10/31 01:46:44;;;;;;;;;;;;;;;9.47;98.10;99738.81;8255137;28;20319;-80
2022/10/31 01:50:48;;;;;;;;;;;;;;;9.46;97.39;99731.91;8260669;28;19937;-79
2022/10/31 01:55:18;;;;;;;;;;;;;;;9.45;97.08;99732.78;8259563;28;20326;-80
2022/10/31 01:59:21;;;;;;;;;;;;;;;9.47;97.57;99728.44;8256287;28;20334;-79
2022/10/31 02:03:24;;;;;;;;;;;;;;;9.42;97.06;99728.44;8257043;28;19940;-79
2022/10/31 02:07:43;;;;;;;;;;;;;;;9.33;97.05;99737.00;8258839;28;19977;-78
2022/10/31 02:11:44;;;;;;;;;;;;;;;9.36;96.99;99721.50;8255183;28;20000;-80
2022/10/31 02:15:49;;;;;;;;;;;;;;;9.32;97.52;99722.31;8236728;28;19938;-79
2022/10/31 02:20:08;;;;;;;;;;;;;;;9.32;97.10;99711.97;8274808;28;20000;-79
2022/10/31 02:24:16;;;;;;;;;;;;;;;9.31;97.08;99714.53;8241813;28;20314;-80
2022/10/31 02:28:21;;;;;;;;;;;;;;;9.27;97.35;99707.63;8247734;28;19925;-79
2022/10/31 02:32:25;;;;;;;;;;;;;;;9.24;97.07;99703.28;8247551;28;20045;-78
2022/10/31 02:36:32;;;;;;;;;;;;;;;9.26;97.48;99708.47;8229900;28;19930;-79
2022/10/31 02:40:38;;;;;;;;;;;;;;;9.25;97.86;99704.16;8253987;28;19938;-79
2022/10/31 02:44:44;;;;;;;;;;;;;;;9.19;97.83;99702.41;8225851;28;20652;-79
2022/10/31 02:48:47;;;;;;;;;;;;;;;9.22;97.96;99693.78;8254032;28;20008;-79
2022/10/31 02:52:52;;;;;;;;;;;;;;;9.20;98.17;99701.53;8263260;28;20048;-80
2022/10/31 02:57:00;;;;;;;;;;;;;;;9.21;97.31;99692.03;8263943;28;19933;-78
2022/10/31 03:01:20;;;;;;;;;;;;;;;9.08;97.33;99711.81;8275571;28;19932;-79
2022/10/31 03:05:33;;;;;;;;;;;;;;;9.09;98.42;99698.88;8265363;28;20036;-78
2022/10/31 03:09:50;;;;;;;;;;;;;;;9.12;98.18;99689.38;8271686;28;19930;-79
2022/10/31 03:13:57;;;;;;;;;;;;;;;9.14;98.73;99703.22;8259792;28;19926;-80
2022/10/31 03:18:02;;;;;;;;;;;;;;;9.17;98.20;99700.66;8243582;28;19933;-79
2022/10/31 03:22:09;;;;;;;;;;;;;;;9.19;98.42;99698.94;8267275;28;19925;-80
2022/10/31 03:26:12;;;;;;;;;;;;;;;9.24;97.93;99697.25;8263362;28;19936;-79
2022/10/31 03:30:14;;;;;;;;;;;;;;;9.23;97.76;99693.78;8263555;28;20007;-79
2022/10/31 03:34:17;;;;;;;;;;;;;;;9.23;98.30;99695.50;8248443;28;20287;-79
2022/10/31 03:38:19;;;;;;;;;;;;;;;9.18;97.94;99702.41;8266280;28;19929;-78
2022/10/31 03:42:28;;;;;;;;;;;;;;;9.17;97.66;99711.03;8264778;28;20306;-79
2022/10/31 03:46:30;;;;;;;;;;;;;;;9.17;97.48;99706.72;8270198;28;19940;-79
2022/10/31 03:50:50;;;;;;;;;;;;;;;9.16;96.81;99710.16;8266016;28;19926;-79
2022/10/31 03:54:54;;;;;;;;;;;;;;;9.11;97.21;99691.09;8267023;28;19926;-79
2022/10/31 03:59:01;;;;;;;;;;;;;;;9.14;97.57;99693.72;8265674;28;19934;-78
2022/10/31 04:03:41;;;;;;;;;;;;;;;9.11;97.62;99695.41;8258661;28;19934;-80
2022/10/31 04:07:45;;;;;;;;;;;;;;;9.07;97.64;99695.41;8197947;28;19930;-81
2022/10/31 04:11:50;;;;;;;;;;;;;;;9.09;97.75;99695.41;8177029;28;19927;-79
2022/10/31 04:15:52;;;;;;;;;;;;;;;9.09;97.93;99696.28;8171402;28;19945;-78
2022/10/31 04:19:53;;;;;;;;;;;;;;;9.05;97.05;99691.94;8185318;28;19934;-80
2022/10/31 04:23:55;;;;;;;;;;;;;;;9.02;97.33;99689.34;8198700;28;19985;-78
2022/10/31 04:27:56;;;;;;;;;;;;;;;8.94;97.24;99683.22;8176608;28;19970;-79
2022/10/31 04:31:58;;;;;;;;;;;;;;;8.94;97.80;99682.34;8175286;28;19934;-79
2022/10/31 04:36:00;;;;;;;;;;;;;;;8.96;98.18;99681.50;8180494;28;19930;-79
2022/10/31 04:40:02;;;;;;;;;;;;;;;8.98;97.56;99678.97;8260191;28;19934;-78
2022/10/31 04:44:03;;;;;;;;;;;;;;;8.94;97.66;99674.59;8261704;28;19943;-79
2022/10/31 04:48:04;;;;;;;;;;;;;;;8.91;97.22;99664.22;8254007;28;20550;-79
2022/10/31 04:52:07;;;;;;;;;;;;;;;8.88;97.75;99671.97;8236864;28;19929;-78
2022/10/31 04:56:09;;;;;;;;;;;;;;;8.89;97.43;99668.53;8254591;28;19980;-80
2022/10/31 05:00:11;;;;;;;;;;;;;;;8.81;97.31;99662.44;8265233;28;19949;-78
2022/10/31 05:04:12;;;;;;;;;;;;;;;8.79;97.71;99658.09;8261120;28;20599;-80
2022/10/31 05:08:13;;;;;;;;;;;;;;;8.76;97.84;99664.97;8262498;28;20035;-79
2022/10/31 05:12:15;;;;;;;;;;;;;;;8.71;97.25;99653.72;8259122;28;19964;-78
2022/10/31 05:16:16;;;;;;;;;;;;;;;8.68;97.04;99653.72;8250648;28;19929;-78
2022/10/31 05:20:19;;;;;;;;;;;;;;;8.66;97.48;99652.84;8272391;28;19934;-77
2022/10/31 05:24:21;;;;;;;;;;;;;;;8.61;97.75;99652.78;8241184;28;19930;-79
2022/10/31 05:28:22;;;;;;;;;;;;;;;8.56;97.68;99648.44;8256455;28;19933;-79
2022/10/31 05:32:24;;;;;;;;;;;;;;;8.57;98.00;99644.97;8249436;28;19934;-80
2022/10/31 05:36:25;;;;;;;;;;;;;;;8.56;98.23;99646.72;8265365;28;19992;-78
2022/10/31 05:40:27;;;;;;;;;;;;;;;8.56;97.92;99648.44;8254221;28;19929;-77
2022/10/31 05:44:28;;;;;;;;;;;;;;;8.50;97.41;99638.03;8239087;28;19930;-78
2022/10/31 05:48:29;;;;;;;;;;;;;;;8.43;96.44;99637.97;8232352;28;19992;-77
2022/10/31 05:52:31;;;;;;;;;;;;;;;8.42;97.17;99637.97;8239224;28;19934;-77
2022/10/31 05:56:33;;;;;;;;;;;;;;;8.34;97.10;99640.50;8258688;28;19987;-78
2022/10/31 06:00:34;;;;;;;;;;;;;;;8.30;97.67;99630.94;8247889;28;19936;-78
2022/10/31 06:04:36;;;;;;;;;;;;;;;8.33;97.63;99624.94;8260483;28;19960;-78
2022/10/31 06:08:37;;;;;;;;;;;;;;;8.34;97.70;99616.34;8247022;28;20438;-78
2022/10/31 06:12:40;;;;;;;;;;;;;;;8.30;97.23;99624.91;8242756;28;19940;-78
2022/10/31 06:16:41;;;;;;;;;;;;;;;8.26;97.38;99613.69;8259482;28;19930;-78
2022/10/31 06:20:43;;;;;;;;;;;;;;;8.26;97.17;99617.94;8262288;28;20310;-78
2022/10/31 06:24:44;;;;;;;;;;;;;;;8.22;98.09;99617.06;8277553;28;19934;-78
2022/10/31 06:28:46;;;;;;;;;;;;;;;8.27;98.71;99614.53;8258551;28;19926;-78
2022/10/31 06:32:47;;;;;;;;;;;;;;;8.29;98.07;99612.84;8259181;28;19929;-79
2022/10/31 06:36:48;;;;;;;;;;;;;;;8.31;98.06;99611.13;8246694;28;19930;-78
2022/10/31 06:40:50;;;;;;;;;;;;;;;8.31;97.65;99618.88;8261965;28;19926;-78
2022/10/31 06:44:51;;;;;;;;;;;;;;;8.30;97.61;99619.75;8251471;28;20687;-78
2022/10/31 06:48:52;;;;;;;;;;;;;;;8.36;98.02;99625.84;8255682;28;19983;-79
2022/10/31 06:52:56;;;;;;;;;;;;;;;8.39;97.82;99615.53;8265698;28;19934;-80
2022/10/31 06:56:58;;;;;;;;;;;;;;;8.39;97.68;99633.63;8276598;28;19929;-80
2022/10/31 07:01:00;;;;;;;;;;;;;;;8.39;98.38;99640.53;8260872;28;19925;-82
2022/10/31 07:05:01;;;;;;;;;;;;;;;8.47;98.65;99633.72;8248815;28;19926;-80
2022/10/31 07:09:03;;;;;;;;;;;;;;;8.54;98.15;99639.78;8277911;28;20016;-82
2022/10/31 07:13:05;;;;;;;;;;;;;;;8.64;98.07;99646.78;8248845;28;19929;-81
2022/10/31 07:17:07;;;;;;;;;;;;;;;8.76;98.44;99646.84;8260049;28;19926;-81
2022/10/31 07:21:08;;;;;;;;;;;;;;;8.81;98.62;99636.56;8279748;28;20359;-80
2022/10/31 07:25:10;;;;;;;;;;;;;;;8.90;98.30;99650.41;8265223;28;19974;-82
2022/10/31 07:29:11;;;;;;;;;;;;;;;8.97;97.67;99648.72;8270485;28;19930;-82
2022/10/31 07:33:13;;;;;;;;;;;;;;;9.05;97.81;99649.63;8220903;28;20650;-82
2022/10/31 07:37:14;;;;;;;;;;;;;;;9.09;97.99;99649.66;8264831;28;19926;-82
2022/10/31 07:41:16;;;;;;;;;;;;;;;9.11;97.40;99651.38;8235608;28;20030;-82
2022/10/31 07:45:20;;;;;;;;;;;;;;;9.19;98.29;99660.09;8240648;28;20350;-82
2022/10/31 07:49:22;;;;;;;;;;;;;;;9.29;98.04;99656.66;8223079;28;20000;-83
2022/10/31 07:53:23;;;;;;;;;;;;;;;9.39;98.02;99654.13;8230791;28;19953;-82
2022/10/31 07:57:25;;;;;;;;;;;;;;;9.50;98.04;99655.88;8233668;28;19934;-83
2022/10/31 08:01:33;;;;;;;;;;;;;;;9.58;98.10;99657.66;8250078;28;19926;-82
2022/10/31 08:05:35;;;;;;;;;;;;;;;9.68;98.11;99646.44;8246423;28;20445;-83
2022/10/31 08:09:36;;;;;;;;;;;;;;;9.76;98.00;99648.22;8267495;28;19929;-82
2022/10/31 08:13:38;;;;;;;;;;;;;;;9.76;97.77;99643.03;8268104;28;20755;-83
2022/10/31 08:17:39;;;;;;;;;;;;;;;9.89;98.15;99650.00;8263879;28;19939;-83
2022/10/31 08:21:40;;;;;;;;;;;;;;;10.05;98.04;99643.94;8250367;28;19929;-83
2022/10/31 08:25:42;;;;;;;;;;;;;;;10.18;98.22;99634.47;8278051;28;19929;-81
2022/10/31 08:29:43;;;;;;;;;;;;;;;10.31;98.24;99638.84;8259094;28;20016;-81
2022/10/31 08:33:45;;;;;;;;;;;;;;;10.45;98.22;99629.34;8254973;28;19930;-80
2022/10/31 08:37:51;;;;;;;;;;;;;;;10.61;97.76;99625.00;8247307;28;19952;-83
2022/10/31 08:41:53;;;;;;;;;;;;;;;10.74;97.95;99620.63;8268617;28;19932;-80
2022/10/31 08:45:54;;;;;;;;;;;;;;;10.87;97.93;99612.81;8248332;28;19940;-81
2022/10/31 08:49:56;;;;;;;;;;;;;;;10.98;98.07;99609.34;8249491;28;20574;-80
2022/10/31 08:53:57;;;;;;;;;;;;;;;11.09;97.56;99602.38;8259815;28;19933;-80
2022/10/31 08:57:59;;;;;;;;;;;;;;;11.13;97.48;99599.78;8256820;28;19929;-80
2022/10/31 09:02:01;;;;;;;;;;;;;;;11.24;97.77;99598.88;8252057;28;19930;-81
2022/10/31 09:06:02;;;;;;;;;;;;;;;11.34;98.38;99597.97;8254264;28;19941;-82
2022/10/31 09:10:04;;;;;;;;;;;;;;;11.53;99.06;99596.16;8264292;28;20282;-81
2022/10/31 09:14:05;;;;;;;;;;;;;;;11.74;99.16;99599.50;8261412;28;19933;-81
2022/10/31 09:18:07;;;;;;;;;;;;;;;11.98;98.10;99589.81;8258716;28;19929;-80
2022/10/31 09:22:09;;;;;;;;;;;;;;;12.20;97.51;99587.91;8277210;28;20641;-80
2022/10/31 09:26:10;;;;;;;;;;;;;;;12.49;96.85;99585.09;8284594;28;19929;-79
2022/10/31 09:30:13;;;;;;;;;;;;;;;12.82;96.23;99597.78;8260251;28;19926;-80
2022/10/31 09:34:14;;;;;;;;;;;;;;;13.15;94.40;99586.13;8266938;28;19933;-80
2022/10/31 09:38:18;;;;;;;;;;;;;;;13.50;93.20;99571.84;8250566;28;19965;-80
2022/10/31 09:42:20;;;;;;;;;;;;;;;13.79;92.21;99558.34;8253478;28;19961;-80
2022/10/31 09:46:35;;;;;;;;;;;;;;;14.02;91.39;99560.66;8235656;28;19933;-81
2022/10/31 09:50:47;;;;;;;;;;;;;;;14.32;90.49;99557.50;8262131;28;20540;-80
2022/10/31 09:54:51;;;;;;;;;;;;;;;14.58;88.31;99559.72;8276129;28;20548;-80
2022/10/31 09:58:55;;;;;;;;;;;;;;;14.74;86.14;99547.25;8268851;28;19930;-80
2022/10/31 10:02:59;;;;;;;;;;;;;;;14.81;84.26;99561.91;8260377;28;19942;-81
2022/10/31 10:07:06;;;;;;;;;;;;;;;14.92;83.66;99552.13;8261882;28;19932;-81
2022/10/31 10:11:10;;;;;;;;;;;;;;;15.01;83.07;99545.81;8273906;28;19984;-80
2022/10/31 10:15:15;;;;;;;;;;;;;;;15.08;82.32;99545.69;8260472;28;19929;-80
2022/10/31 10:19:25;;;;;;;;;;;;;;;15.20;82.56;99556.78;8259718;28;19938;-80
2022/10/31 10:23:36;;;;;;;;;;;;;;;15.29;82.40;99559.22;8275076;28;20022;-80
2022/10/31 10:27:40;;;;;;;;;;;;;;;15.42;81.62;99564.13;8287888;28;19937;-80
2022/10/31 10:31:45;;;;;;;;;;;;;;;15.55;80.82;99571.72;8265206;28;20490;-81
2022/10/31 10:35:49;;;;;;;;;;;;;;;15.70;80.46;99560.97;8264872;28;19940;-81
2022/10/31 10:39:53;;;;;;;;;;;;;;;15.86;80.26;99556.25;8262385;28;20267;-81
2022/10/31 10:43:55;;;;;;;;;;;;;;;15.96;80.07;99553.34;8248573;28;19926;-80
2022/10/31 10:48:05;;;;;;;;;;;;;;;16.12;80.06;99561.72;8265284;28;19930;-80
2022/10/31 10:52:15;;;;;;;;;;;;;;;16.24;79.16;99537.84;8275969;28;19934;-80
2022/10/31 10:56:40;;;;;;;;;;;;;;;16.35;78.14;99527.09;8276082;28;19930;-80
2022/10/31 11:00:46;;;;;;;;;;;;;;;16.42;78.01;99536.50;8253119;28;19968;-80
2022/10/31 11:04:49;;;;;;;;;;;;;;;16.51;78.31;99533.63;8253770;28;19934;-80
2022/10/31 11:08:52;;;;;;;;;;;;;;;16.56;78.14;99541.41;8257210;28;19937;-81
2022/10/31 11:12:59;;;;;;;;;;;;;;;16.62;77.04;99549.09;8274936;28;20322;-81
2022/10/31 11:17:10;;;;;;;;;;;;;;;16.72;77.11;99523.53;8251246;28;20582;-81
2022/10/31 11:21:23;;;;;;;;;;;;;;;16.74;77.78;99506.84;8243293;28;20280;-81
2022/10/31 11:25:26;;;;;;;;;;;;;;;16.79;78.14;99489.22;8259667;28;20422;-80
2022/10/31 11:29:27;;;;;;;;;;;;;;;16.79;78.11;99478.72;8244837;28;20558;-81
2022/10/31 11:33:33;;;;;;;;;;;;;;;16.78;77.36;99490.13;8267614;28;19940;-81
2022/10/31 11:37:41;;;;;;;;;;;;;;;16.80;76.94;99509.28;8262693;28;19941;-81
2022/10/31 11:41:43;;;;;;;;;;;;;;;16.81;77.22;99497.91;8261046;28;19929;-81
2022/10/31 11:45:45;;;;;;;;;;;;;;;16.85;76.84;99482.94;8254307;28;19934;-81
2022/10/31 11:49:50;;;;;;;;;;;;;;;16.86;77.32;99489.91;8257739;28;19934;-81
2022/10/31 11:53:53;;;;;;;;;;;;;;;16.90;77.50;99475.81;8260203;28;19929;-81
2022/10/31 11:58:02;;;;;;;;;;;;;;;16.98;77.77;99470.34;8256511;28;19933;-81
2022/10/31 12:02:17;;;;;;;;;;;;;;;17.04;77.99;99467.53;8253345;28;19929;-81
2022/10/31 12:06:25;;;;;;;;;;;;;;;17.12;78.05;99460.31;8272007;28;19933;-81
2022/10/31 12:10:32;;;;;;;;;;;;;;;17.20;77.62;99450.41;8272904;28;19964;-81
2022/10/31 12:14:47;;;;;;;;;;;;;;;17.42;76.91;99442.78;8253691;28;20020;-81
2022/10/31 12:18:53;;;;;;;;;;;;;;;17.67;75.53;99427.94;8262125;28;19930;-81
2022/10/31 12:23:06;;;;;;;;;;;;;;;17.96;74.47;99421.75;8269492;28;19933;-81
2022/10/31 12:27:16;;;;;;;;;;;;;;;18.24;73.48;99415.53;8260214;28;19933;-81
2022/10/31 12:31:17;;;;;;;;;;;;;;;18.43;73.36;99409.56;8272375;28;20347;-81
2022/10/31 12:35:38;;;;;;;;;;;;;;;18.56;72.47;99402.09;8244781;28;19968;-81
2022/10/31 12:39:52;;;;;;;;;;;;;;;18.63;71.91;99390.44;8268498;28;19936;-81
2022/10/31 12:44:15;;;;;;;;;;;;;;;18.61;71.42;99378.25;8267886;28;19978;-81
2022/10/31 12:48:24;;;;;;;;;;;;;;;18.51;71.95;99369.00;8253583;28;19926;-81
2022/10/31 12:52:35;;;;;;;;;;;;;;;18.38;71.83;99348.41;8281345;28;19925;-81
2022/10/31 12:56:42;;;;;;;;;;;;;;;18.28;72.46;99330.38;8252894;28;19930;-81
2022/10/31 13:00:45;;;;;;;;;;;;;;;18.23;72.97;99313.94;8285275;28;19980;-81
2022/10/31 13:04:50;;;;;;;;;;;;;;;18.21;72.77;99319.25;8271394;28;19930;-82
2022/10/31 13:08:57;;;;;;;;;;;;;;;18.22;73.14;99325.38;8283107;28;20008;-82
2022/10/31 13:13:02;;;;;;;;;;;;;;;18.22;72.71;99314.84;8277905;28;19976;-81
2022/10/31 13:17:05;;;;;;;;;;;;;;;18.17;73.60;99345.72;8285632;28;19960;-81
2022/10/31 13:21:12;;;;;;;;;;;;;;;18.16;74.18;99336.97;8300357;28;19917;-81
2022/10/31 13:25:23;;;;;;;;;;;;;;;18.16;74.33;99331.72;8302442;28;19910;-81
2022/10/31 13:29:24;;;;;;;;;;;;;;;18.16;75.21;99305.44;8282571;28;20004;-81
2022/10/31 13:33:40;;;;;;;;;;;;;;;18.09;75.53;99281.13;8288550;28;19921;-81
2022/10/31 13:37:47;;;;;;;;;;;;;;;18.09;74.92;99306.56;8307722;28;19926;-81
2022/10/31 13:42:02;;;;;;;;;;;;;;;18.12;75.97;99277.53;8294040;28;19941;-81
2022/10/31 13:46:21;;;;;;;;;;;;;;;18.12;76.33;99259.97;8267534;28;19950;-81
2022/10/31 13:50:25;;;;;;;;;;;;;;;18.12;75.32;99282.78;8292756;28;20022;-81
2022/10/31 13:54:34;;;;;;;;;;;;;;;18.16;75.71;99273.91;8293512;28;19969;-77
2022/10/31 13:58:36;;;;;;;;;;;;;;;18.23;74.97;99269.25;8249768;28;19938;-77
2022/10/31 14:02:44;;;;;;;;;;;;;;;18.38;74.40;99268.69;8243770;28;19933;-77
2022/10/31 14:06:57;;;;;;;;;;;;;;;18.48;74.54;99245.50;8240067;28;20619;-77
2022/10/31 14:10:58;;;;;;;;;;;;;;;18.51;74.92;99240.16;8248735;28;19934;-77
2022/10/31 14:15:02;;;;;;;;;;;;;;;18.59;73.55;99249.44;8279261;28;20040;-77
2022/10/31 14:19:05;;;;;;;;;;;;;;;18.69;72.48;99248.22;8281380;28;20094;-77
2022/10/31 14:23:26;;;;;;;;;;;;;;;18.85;71.80;99239.69;8259901;28;19944;-77
2022/10/31 14:27:27;;;;;;;;;;;;;;;18.95;72.35;99227.88;8281586;28;19984;-77
2022/10/31 14:31:32;;;;;;;;;;;;;;;18.90;71.72;99222.81;8254023;28;19969;-77
2022/10/31 14:35:50;;;;;;;;;;;;;;;18.81;71.26;99217.91;8253118;28;19933;-77
2022/10/31 14:40:11;;;;;;;;;;;;;;;18.68;70.99;99206.19;8257695;28;19941;-77
2022/10/31 14:44:31;;;;;;;;;;;;;;;18.53;72.37;99215.50;8256041;28;19933;-77
2022/10/31 14:48:52;;;;;;;;;;;;;;;18.37;73.66;99206.50;8272527;28;20007;-77
2022/10/31 14:52:56;;;;;;;;;;;;;;;18.21;75.54;99215.91;8269964;28;20064;-77
2022/10/31 14:57:06;;;;;;;;;;;;;;;18.02;76.93;99224.47;8254103;28;20012;-77
2022/10/31 15:01:07;;;;;;;;;;;;;;;17.92;77.17;99220.47;8250460;28;19940;-77
2022/10/31 15:05:10;;;;;;;;;;;;;;;17.85;76.97;99210.25;8259186;28;20013;-77
2022/10/31 15:09:21;;;;;;;;;;;;;;;17.75;78.88;99209.72;8259736;28;19937;-77
2022/10/31 15:13:24;;;;;;;;;;;;;;;17.62;79.08;99224.19;8265733;28;20290;-77
2022/10/31 15:17:25;;;;;;;;;;;;;;;17.47;80.04;99212.47;8256500;28;19930;-76
2022/10/31 15:21:28;;;;;;;;;;;;;;;17.41;80.66;99225.78;8237727;28;19938;-77
2022/10/31 15:25:32;;;;;;;;;;;;;;;17.35;81.47;99199.75;8251325;28;20541;-77
2022/10/31 15:29:33;;;;;;;;;;;;;;;17.28;81.53;99203.50;8257607;28;19926;-77
2022/10/31 15:33:41;;;;;;;;;;;;;;;17.13;81.72;99211.00;8249842;28;19929;-77
2022/10/31 15:37:48;;;;;;;;;;;;;;;16.96;82.85;99208.06;8252378;28;20634;-77
2022/10/31 15:41:54;;;;;;;;;;;;;;;16.82;83.89;99213.78;8258223;28;19988;-77
2022/10/31 15:45:56;;;;;;;;;;;;;;;16.61;84.33;99214.44;8247825;28;19992;-78
2022/10/31 15:49:58;;;;;;;;;;;;;;;16.52;85.18;99222.59;8236090;28;20012;-77
2022/10/31 15:54:00;;;;;;;;;;;;;;;16.44;85.22;99217.56;8257319;28;19940;-78
2022/10/31 15:58:04;;;;;;;;;;;;;;;16.35;85.88;99217.03;8256342;28;19956;-77
2022/10/31 16:02:10;;;;;;;;;;;;;;;16.20;86.46;99220.97;8251555;28;19930;-77
2022/10/31 16:06:20;;;;;;;;;;;;;;;16.07;86.51;99211.75;8267056;28;19952;-77
2022/10/31 16:10:23;;;;;;;;;;;;;;;15.90;87.14;99217.47;8253318;28;19934;-77
2022/10/31 16:14:29;;;;;;;;;;;;;;;15.74;87.43;99209.19;8251291;28;20867;-78
2022/10/31 16:18:36;;;;;;;;;;;;;;;15.56;87.46;99207.91;8246363;28;19925;-79
2022/10/31 16:22:50;;;;;;;;;;;;;;;15.38;88.22;99208.41;8251717;28;19933;-79
2022/10/31 16:27:12;;;;;;;;;;;;;;;15.25;88.26;99210.47;8255972;28;19933;-79
2022/10/31 16:31:26;;;;;;;;;;;;;;;15.07;88.95;99211.81;8254766;28;20040;-79
2022/10/31 16:35:41;;;;;;;;;;;;;;;14.98;89.65;99213.81;8264039;28;20599;-79
2022/10/31 16:39:47;;;;;;;;;;;;;;;14.86;89.46;99219.34;8250712;28;20024;-79
2022/10/31 16:44:26;;;;;;;;;;;;;;;14.73;90.16;99210.97;8257973;28;19991;-80
2022/10/31 16:48:32;;;;;;;;;;;;;;;14.59;90.46;99218.25;8267311;28;19934;-80
2022/10/31 16:52:39;;;;;;;;;;;;;;;14.48;90.50;99213.28;8258417;28;20347;-80
2022/10/31 16:57:12;;;;;;;;;;;;;;;14.31;90.66;99211.00;8269476;28;19949;-79
2022/10/31 17:01:23;;;;;;;;;;;;;;;14.18;91.03;99210.44;8250475;28;19930;-78
2022/10/31 17:05:46;;;;;;;;;;;;;;;14.03;91.41;99209.91;8249916;28;19929;-79
2022/10/31 17:29:03;;;;;;;;;;;;;;;13.40;92.95;99218.97;10372647;22;19920;-77
2022/10/31 17:33:14;;;;;;;;;;;;;;;13.29;94.21;99218.34;10242205;23;19924;-77
2022/10/31 17:37:22;;;;;;;;;;;;;;;13.23;94.47;99216.66;10237752;23;20417;-77
2022/10/31 17:41:25;;;;;;;;;;;;;;;13.18;94.33;99215.03;10238417;23;19924;-77
2022/10/31 17:45:31;;;;;;;;;;;;;;;13.12;94.27;99210.78;10256649;23;19924;-76
2022/10/31 17:49:36;;;;;;;;;;;;;;;13.00;93.72;99216.19;10238981;23;19939;-76
2022/10/31 17:53:39;;;;;;;;;;;;;;;12.90;93.71;99206.78;10234844;23;19981;-76
2022/10/31 17:57:45;;;;;;;;;;;;;;;12.83;93.77;99206.03;10236247;23;19995;-76
2022/10/31 18:01:46;;;;;;;;;;;;;;;12.76;94.23;99208.78;10251465;23;19940;-76
2022/10/31 18:05:50;;;;;;;;;;;;;;;12.68;94.17;99196.72;10234759;23;19925;-76
2022/10/31 18:09:52;;;;;;;;;;;;;;;12.64;95.33;99202.88;10238134;23;19937;-77
2022/10/31 18:13:55;;;;;;;;;;;;;;;12.57;95.79;99198.66;10261859;23;19920;-76
2022/10/31 18:17:57;;;;;;;;;;;;;;;12.53;95.53;99196.97;10222455;23;19928;-77
2022/10/31 18:21:58;;;;;;;;;;;;;;;12.49;94.78;99194.44;10226663;23;19924;-77
2022/10/31 18:26:00;;;;;;;;;;;;;;;12.40;95.28;99201.53;10224540;23;20294;-76
2022/10/31 18:30:01;;;;;;;;;;;;;;;12.34;95.60;99198.97;10229626;23;20067;-78
2022/10/31 18:34:03;;;;;;;;;;;;;;;12.31;95.44;99195.56;10228778;23;19924;-78
2022/10/31 18:38:05;;;;;;;;;;;;;;;12.28;96.17;99195.63;10230823;23;20293;-77
2022/10/31 18:42:07;;;;;;;;;;;;;;;12.21;95.88;99189.66;10230277;23;19939;-77
2022/10/31 18:46:10;;;;;;;;;;;;;;;12.20;96.44;99182.69;10224259;23;19979;-77
2022/10/31 18:50:12;;;;;;;;;;;;;;;12.19;97.21;99182.72;10229310;23;19985;-77
2022/10/31 18:54:13;;;;;;;;;;;;;;;12.15;96.97;99178.44;10230604;23;20003;-78
2022/10/31 18:58:15;;;;;;;;;;;;;;;12.10;96.36;99181.13;10255637;23;19924;-78
2022/10/31 19:02:16;;;;;;;;;;;;;;;12.04;97.18;99170.81;10199214;23;19974;-77
2022/10/31 19:06:18;;;;;;;;;;;;;;;12.00;97.40;99159.56;10256804;23;19921;-78
2022/10/31 19:10:19;;;;;;;;;;;;;;;11.98;97.83;99157.88;10232941;23;19920;-77
2022/10/31 19:15:05;;;;;;;;;;;;;;;11.98;97.38;99160.47;10277574;23;19940;-84
2022/10/31 19:19:42;;;;;;;;;;;;;;;11.92;97.72;99152.75;10187521;23;19920;-82
2022/10/31 19:24:18;;;;;;;;;;;;;;;11.90;97.51;99157.13;10245359;23;19935;-82
2022/10/31 19:28:34;;;;;;;;;;;;;;;11.89;98.14;99151.06;10247698;23;20349;-83
2022/10/31 19:32:41;;;;;;;;;;;;;;;11.85;97.96;99149.38;10279692;23;19904;-89
2022/10/31 19:36:44;;;;;;;;;;;;;;;11.87;98.88;99150.22;10280938;23;19920;-90
2022/10/31 19:40:45;;;;;;;;;;;;;;;11.91;98.82;99146.69;10280128;23;19927;-90
2022/10/31 19:44:48;;;;;;;;;;;;;;;11.88;98.51;99146.75;10279806;23;19987;-90
2022/10/31 19:48:51;;;;;;;;;;;;;;;11.86;98.49;99143.31;10281677;23;19931;-86
2022/10/31 19:52:54;;;;;;;;;;;;;;;11.79;98.25;99133.84;10299164;23;19947;-90
2022/10/31 19:57:09;;;;;;;;;;;;;;;11.73;97.76;99144.31;10276207;23;19931;-91
2022/10/31 20:01:13;;;;;;;;;;;;;;;11.70;97.44;99141.75;10273666;23;19939;-94
2022/10/31 20:05:15;;;;;;;;;;;;;;;11.64;97.07;99141.81;10276054;23;19924;-87
2022/10/31 20:09:19;;;;;;;;;;;;;;;11.61;97.33;99150.50;10296377;23;19944;-89
2022/10/31 20:13:21;;;;;;;;;;;;;;;11.59;97.94;99148.81;10298018;23;19968;-87
2022/10/31 20:17:24;;;;;;;;;;;;;;;11.60;98.25;99156.59;10228550;23;19925;-78
2022/10/31 20:21:27;;;;;;;;;;;;;;;11.59;98.11;99156.63;10227405;23;19983;-77
2022/10/31 20:25:30;;;;;;;;;;;;;;;11.62;98.99;99149.63;10228228;23;19936;-77
2022/10/31 20:29:31;;;;;;;;;;;;;;;11.69;99.57;99148.69;10228789;23;20011;-77
2022/10/31 20:33:33;;;;;;;;;;;;;;;11.72;99.81;99140.84;10222589;23;19924;-78
2022/10/31 20:37:34;;;;;;;;;;;;;;;11.66;99.83;99125.28;10226558;23;20146;-79
2022/10/31 20:41:37;;;;;;;;;;;;;;;11.62;99.59;99117.56;10254783;23;19999;-79
2022/10/31 20:45:38;;;;;;;;;;;;;;;11.63;100.00;99127.94;10224883;23;19986;-80
2022/10/31 20:49:40;;;;;;;;;;;;;;;11.69;100.00;99121.81;10231065;23;19981;-80
2022/10/31 20:53:42;;;;;;;;;;;;;;;11.72;99.93;99125.25;10229242;23;20622;-80
2022/10/31 20:57:43;;;;;;;;;;;;;;;11.75;99.75;99124.34;10228503;23;19970;-79
2022/10/31 21:01:44;;;;;;;;;;;;;;;11.75;100.00;99120.00;10223153;23;20485;-79
2022/10/31 21:05:57;;;;;;;;;;;;;;;11.79;99.79;99116.50;10252603;23;19924;-79
2022/10/31 21:09:58;;;;;;;;;;;;;;;11.82;100.00;99110.38;10227717;23;19928;-79
2022/10/31 21:13:59;;;;;;;;;;;;;;;11.86;100.00;99113.81;10228428;23;19924;-79
2022/10/31 21:18:01;;;;;;;;;;;;;;;11.89;100.00;99106.81;10244987;23;19928;-79
2022/10/31 21:22:02;;;;;;;;;;;;;;;11.94;100.00;99112.81;10228375;23;19920;-79
2022/10/31 21:26:08;;;;;;;;;;;;;;;12.02;100.00;99113.56;10229141;23;19981;-79
2022/10/31 21:30:10;;;;;;;;;;;;;;;12.09;100.00;99107.41;10248183;23;19923;-80
2022/10/31 21:34:12;;;;;;;;;;;;;;;12.17;100.00;99106.41;10229293;23;19928;-80
2022/10/31 21:38:13;;;;;;;;;;;;;;;12.44;100.00;99111.19;10228539;23;20015;-77